Time;durP1;ratioP1;P1;durP2;ratioP2;P2;SDS_P1;SDS_P2;PMS_P1;PMS_P2;Temp;Humidity;BMP_temperature;BMP_pressure;BME280_temperature;BME280_humidity;BME280_pressure;Samples;Min_cycle;Max_cycle;Signal;HPM_P1;HPM_P2
2023/10/29 00:00:12;;;;;;;4.47;3.40;;;;;;;1.68;74.43;97968.50;5115188;28;20023;-56
2023/10/29 00:02:38;;;;;;;4.03;3.55;;;;;;;1.60;74.92;97960.31;5115156;28;20525;-55
2023/10/29 00:05:04;;;;;;;6.25;3.38;;;;;;;1.58;74.74;97952.50;5115093;27;20032;-60
2023/10/29 00:07:29;;;;;;;6.20;3.50;;;;;;;1.69;74.86;97977.25;5115540;28;20044;-57
2023/10/29 00:09:55;;;;;;;4.03;3.15;;;;;;;1.79;74.75;97996.72;5115220;28;20103;-55
2023/10/29 00:12:21;;;;;;;4.53;3.38;;;;;;;1.83;74.34;98000.00;5115049;28;20118;-58
2023/10/29 00:14:47;;;;;;;3.50;3.10;;;;;;;1.80;74.58;98008.97;5114844;28;20058;-55
2023/10/29 00:17:12;;;;;;;3.63;3.05;;;;;;;1.83;74.01;98003.44;5115363;28;20050;-58
2023/10/29 00:19:38;;;;;;;3.92;2.58;;;;;;;1.77;74.53;98006.56;5114656;28;20434;-57
2023/10/29 00:22:04;;;;;;;4.72;3.40;;;;;;;1.82;74.06;98009.69;5114671;28;20517;-58
2023/10/29 00:24:29;;;;;;;3.72;3.00;;;;;;;1.80;73.65;98006.31;5114769;28;20127;-53
2023/10/29 00:26:55;;;;;;;3.35;3.05;;;;;;;1.78;73.84;98013.50;5114366;28;20344;-54
2023/10/29 00:29:21;;;;;;;4.80;2.80;;;;;;;1.83;74.09;98014.00;5114667;28;20335;-55
2023/10/29 00:31:47;;;;;;;3.13;2.53;;;;;;;1.83;73.91;98014.00;5114086;28;20450;-51
2023/10/29 00:34:12;;;;;;;4.22;2.83;;;;;;;1.79;73.69;98003.78;5114872;28;20027;-52
2023/10/29 00:36:38;;;;;;;3.78;2.70;;;;;;;1.85;73.75;98022.66;5114944;28;20034;-54
2023/10/29 00:39:03;;;;;;;3.90;2.78;;;;;;;1.83;73.94;98019.28;5113378;28;20385;-57
2023/10/29 00:41:30;;;;;;;3.70;2.60;;;;;;;1.87;73.84;98017.28;5114971;28;20031;-59
2023/10/29 00:43:55;;;;;;;3.15;1.98;;;;;;;1.88;73.59;98018.09;5114166;28;20111;-58
2023/10/29 00:46:21;;;;;;;2.65;2.05;;;;;;;1.85;73.30;98025.28;5114338;28;20409;-59
2023/10/29 00:48:46;;;;;;;3.20;2.20;;;;;;;1.84;73.56;98022.78;5114322;28;20648;-57
2023/10/29 00:51:13;;;;;;;2.72;1.90;;;;;;;1.80;73.27;98032.72;5113917;28;20462;-58
2023/10/29 00:53:39;;;;;;;3.00;1.83;;;;;;;1.76;73.28;98036.53;5114292;28;20123;-56
2023/10/29 00:56:05;;;;;;;3.03;2.33;;;;;;;1.75;73.56;98029.56;5112013;28;20111;-54
2023/10/29 00:58:31;;;;;;;2.17;1.83;;;;;;;1.76;73.89;98031.25;5112816;28;20031;-59
2023/10/29 01:00:57;;;;;;;3.80;1.90;;;;;;;1.76;73.08;98031.25;5114115;28;20501;-58
2023/10/29 01:03:22;;;;;;;2.67;1.90;;;;;;;1.80;73.53;98035.34;5113219;28;20031;-59
2023/10/29 01:05:49;;;;;;;4.10;1.90;;;;;;;1.78;73.00;98050.44;5113618;28;20577;-54
2023/10/29 01:08:15;;;;;;;3.15;1.50;;;;;;;1.81;73.14;98050.22;5114367;28;20050;-59
2023/10/29 01:10:41;;;;;;;2.78;1.67;;;;;;;1.78;73.11;98050.44;5113206;28;20032;-56
2023/10/29 01:13:07;;;;;;;2.42;1.42;;;;;;;1.77;73.42;98061.09;5114548;28;20116;-50
2023/10/29 01:15:35;;;;;;;1.70;1.60;;;;;;;1.79;73.07;98060.06;5113771;28;20359;-51
2023/10/29 01:18:01;;;;;;;1.88;1.50;;;;;;;1.77;72.90;98051.41;5113357;28;20097;-52
2023/10/29 01:20:27;;;;;;;2.63;2.13;;;;;;;1.81;73.27;98060.78;5113872;28;20034;-54
2023/10/29 01:22:52;;;;;;;1.63;1.52;;;;;;;1.83;73.14;98069.41;5113686;28;20110;-53
2023/10/29 01:25:18;;;;;;;2.25;1.92;;;;;;;1.85;73.20;98071.97;5113223;28;20131;-53
2023/10/29 01:27:45;;;;;;;1.50;1.40;;;;;;;1.86;73.40;98081.56;5113471;28;20040;-53
2023/10/29 01:30:11;;;;;;;1.98;1.65;;;;;;;1.88;73.16;98084.94;5113528;28;20037;-55
2023/10/29 01:32:38;;;;;;;2.92;2.15;;;;;;;1.90;72.97;98090.09;5113326;28;20040;-58
2023/10/29 01:35:04;;;;;;;3.70;1.88;;;;;;;1.91;73.12;98091.75;5113424;28;20027;-60
2023/10/29 01:37:30;;;;;;;3.60;1.80;;;;;;;1.94;73.04;98099.50;5113805;28;20032;-57
2023/10/29 01:39:56;;;;;;;2.53;1.70;;;;;;;1.95;72.64;98096.72;5114186;28;20106;-57
2023/10/29 01:42:22;;;;;;;3.30;1.80;;;;;;;1.94;72.50;98095.03;5113885;28;20431;-57
2023/10/29 01:44:47;;;;;;;2.78;1.70;;;;;;;1.86;72.81;98087.66;5113722;28;20160;-60
2023/10/29 01:47:13;;;;;;;3.65;1.65;;;;;;;1.92;72.80;98107.50;5113501;27;20070;-58
2023/10/29 01:49:39;;;;;;;1.85;1.60;;;;;;;1.92;73.00;98107.50;5112508;28;20038;-57
2023/10/29 01:52:05;;;;;;;1.83;1.50;;;;;;;1.83;72.54;98098.44;5113459;28;20076;-58
2023/10/29 01:54:30;;;;;;;3.40;1.42;;;;;;;1.94;72.96;98110.03;5113533;28;20035;-59
2023/10/29 01:56:56;;;;;;;1.92;1.45;;;;;;;1.75;72.61;98082.34;5094933;28;20446;-53
2023/10/29 01:59:21;;;;;;;1.55;1.35;;;;;;;1.94;72.70;98113.50;5112857;28;20798;-58
2023/10/29 02:01:46;;;;;;;2.97;1.50;;;;;;;1.92;72.72;98109.28;5112741;28;20487;-57
2023/10/29 02:04:12;;;;;;;1.40;1.30;;;;;;;1.86;73.08;98111.41;5112752;28;20042;-59
2023/10/29 02:06:41;;;;;;;1.60;1.50;;;;;;;1.95;73.17;98111.72;5113327;28;20106;-56
2023/10/29 02:09:10;;;;;;;2.70;1.33;;;;;;;1.95;72.34;98130.19;5112668;28;20024;-61
2023/10/29 02:11:37;;;;;;;1.65;1.40;;;;;;;2.00;72.49;98143.91;5113258;28;20030;-59
2023/10/29 02:14:04;;;;;;;3.33;1.55;;;;;;;1.97;72.46;98152.03;5112458;28;20020;-58
2023/10/29 02:16:29;;;;;;;1.20;1.10;;;;;;;1.94;72.12;98149.63;5112998;28;20031;-56
2023/10/29 02:18:55;;;;;;;1.13;1.05;;;;;;;2.00;72.69;98154.47;5112803;28;20050;-57
2023/10/29 02:21:22;;;;;;;1.60;1.20;;;;;;;2.02;72.37;98152.56;5112292;28;20027;-58
2023/10/29 02:23:48;;;;;;;2.67;1.40;;;;;;;2.03;72.25;98158.66;5112624;28;20077;-60
2023/10/29 02:26:14;;;;;;;1.65;1.20;;;;;;;2.04;72.54;98166.47;5112365;28;20039;-56
2023/10/29 02:28:39;;;;;;;1.45;1.20;;;;;;;2.05;71.92;98165.53;5112431;28;20050;-57
2023/10/29 02:31:05;;;;;;;2.25;1.25;;;;;;;1.98;71.74;98157.19;5112339;28;20036;-56
2023/10/29 02:33:31;;;;;;;2.80;1.15;;;;;;;2.04;72.29;98177.03;5112791;28;20093;-56
2023/10/29 02:35:56;;;;;;;2.65;1.13;;;;;;;2.04;72.22;98171.75;5112926;28;20046;-53
2023/10/29 02:38:25;;;;;;;1.30;1.10;;;;;;;2.02;72.35;98173.66;5112998;28;20062;-59
2023/10/29 02:40:51;;;;;;;1.10;0.93;;;;;;;2.08;72.26;98182.94;5112639;28;20147;-56
2023/10/29 02:43:16;;;;;;;1.10;1.00;;;;;;;2.13;72.30;98188.75;5112859;28;20020;-57
2023/10/29 02:45:42;;;;;;;1.55;1.20;;;;;;;1.90;71.97;98153.41;5112495;28;20103;-57
2023/10/29 02:48:08;;;;;;;1.38;1.05;;;;;;;2.18;71.91;98193.69;5112321;28;20028;-57
2023/10/29 02:50:38;;;;;;;1.30;1.13;;;;;;;2.21;71.36;98201.38;5112605;28;20028;-59
2023/10/29 02:53:04;;;;;;;1.20;1.10;;;;;;;2.16;71.23;98204.34;5112770;28;20036;-58
2023/10/29 02:55:29;;;;;;;1.02;0.90;;;;;;;2.14;71.40;98203.63;5112231;28;20035;-58
2023/10/29 02:57:55;;;;;;;0.93;0.88;;;;;;;2.13;71.12;98213.31;5112387;28;20055;-58
2023/10/29 03:00:20;;;;;;;1.10;1.00;;;;;;;2.13;71.00;98215.97;5112414;28;20061;-58
2023/10/29 03:02:46;;;;;;;1.20;1.10;;;;;;;2.16;71.00;98222.84;5114401;28;20030;-57
2023/10/29 03:05:12;;;;;;;2.67;1.05;;;;;;;2.15;71.33;98229.91;5116324;28;20455;-58
2023/10/29 03:07:38;;;;;;;2.03;1.30;;;;;;;2.19;71.13;98227.06;5116216;28;20062;-56
2023/10/29 03:10:04;;;;;;;1.55;1.27;;;;;;;2.23;71.12;98252.28;5116411;28;20034;-59
2023/10/29 03:12:30;;;;;;;1.30;1.20;;;;;;;2.22;71.29;98242.69;5115590;28;20028;-58
2023/10/29 03:14:56;;;;;;;1.55;1.38;;;;;;;2.24;71.19;98251.34;5115866;28;20523;-54
2023/10/29 03:17:22;;;;;;;1.98;1.38;;;;;;;2.25;71.12;98260.94;5116397;28;20442;-58
2023/10/29 03:19:48;;;;;;;1.20;1.10;;;;;;;2.23;70.72;98260.22;5116107;28;20370;-58
2023/10/29 03:22:13;;;;;;;1.90;1.63;;;;;;;2.26;70.94;98260.81;5116355;28;20036;-56
2023/10/29 03:24:39;;;;;;;2.35;1.80;;;;;;;2.21;71.00;98259.47;5115937;28;20126;-57
2023/10/29 03:27:04;;;;;;;2.42;1.90;;;;;;;2.23;70.27;98262.84;5115608;28;20067;-53
2023/10/29 03:29:30;;;;;;;2.33;2.00;;;;;;;2.10;70.64;98258.44;5115853;28;20479;-56
2023/10/29 03:31:55;;;;;;;2.33;2.03;;;;;;;2.12;70.65;98268.91;5116085;28;20024;-57
2023/10/29 03:34:22;;;;;;;2.40;2.20;;;;;;;2.19;71.07;98271.97;5114424;28;20064;-60
2023/10/29 03:36:48;;;;;;;2.58;2.38;;;;;;;1.96;70.68;98245.38;5116126;28;20046;-58
2023/10/29 03:39:13;;;;;;;3.78;2.45;;;;;;;2.10;70.52;98294.56;5114814;28;20133;-59
2023/10/29 03:41:39;;;;;;;3.63;2.63;;;;;;;2.10;70.95;98287.47;5115890;27;20445;-57
2023/10/29 03:44:06;;;;;;;3.05;2.78;;;;;;;1.99;70.99;98268.91;5116170;28;20111;-56
2023/10/29 03:46:32;;;;;;;3.10;2.80;;;;;;;2.07;70.97;98292.16;5115901;28;20401;-58
2023/10/29 03:48:57;;;;;;;3.13;2.83;;;;;;;2.00;70.73;98291.72;5115609;28;20147;-58
2023/10/29 03:51:25;;;;;;;3.38;2.92;;;;;;;2.01;71.04;98298.69;5115083;28;20035;-59
2023/10/29 03:53:50;;;;;;;2.95;2.67;;;;;;;2.04;71.37;98297.63;5115327;28;20028;-57
2023/10/29 03:56:16;;;;;;;4.03;3.42;;;;;;;2.07;70.99;98302.72;5114048;28;20035;-54
2023/10/29 03:58:41;;;;;;;3.72;3.25;;;;;;;2.13;71.12;98316.28;5115313;28;20031;-56
2023/10/29 04:01:07;;;;;;;3.90;3.35;;;;;;;2.14;70.93;98310.06;5115399;28;20119;-56
2023/10/29 04:03:32;;;;;;;3.53;3.22;;;;;;;2.19;70.72;98330.03;5115071;28;20028;-58
2023/10/29 04:05:58;;;;;;;3.55;2.97;;;;;;;2.13;70.12;98318.09;5114494;28;20111;-57
2023/10/29 04:08:23;;;;;;;4.32;3.35;;;;;;;2.09;70.41;98322.75;5115056;28;20114;-56
2023/10/29 04:10:49;;;;;;;4.30;3.00;;;;;;;2.13;70.43;98334.78;5115222;28;20040;-59
2023/10/29 04:13:15;;;;;;;3.95;3.30;;;;;;;2.06;70.79;98333.53;5114702;28;20019;-58
2023/10/29 04:15:40;;;;;;;4.25;3.40;;;;;;;2.01;70.68;98338.28;5113577;28;20409;-54
2023/10/29 04:18:06;;;;;;;4.38;3.72;;;;;;;2.05;70.48;98347.69;5114333;28;20446;-58
2023/10/29 04:20:32;;;;;;;3.75;3.17;;;;;;;2.04;70.49;98346.00;5114566;28;20027;-58
2023/10/29 04:22:57;;;;;;;3.58;3.20;;;;;;;2.06;70.58;98353.81;5113883;28;20031;-55
2023/10/29 04:25:23;;;;;;;3.50;3.20;;;;;;;2.01;69.88;98346.22;5114112;28;20351;-54
2023/10/29 04:27:48;;;;;;;3.90;3.50;;;;;;;2.06;70.49;98357.28;5114653;28;20032;-54
2023/10/29 04:30:14;;;;;;;5.07;4.07;;;;;;;2.11;70.42;98367.53;5114224;27;20027;-57
2023/10/29 04:32:40;;;;;;;4.20;3.80;;;;;;;2.08;70.38;98362.47;5115221;28;20047;-56
2023/10/29 04:35:05;;;;;;;4.18;3.78;;;;;;;2.12;70.15;98374.50;5114596;28;20370;-56
2023/10/29 04:37:31;;;;;;;4.32;3.75;;;;;;;2.07;70.17;98364.25;5114761;28;20051;-58
2023/10/29 04:39:57;;;;;;;4.40;4.00;;;;;;;2.13;70.08;98377.03;5113681;28;20032;-57
2023/10/29 04:42:22;;;;;;;5.05;3.97;;;;;;;2.13;69.63;98371.75;5114723;28;20031;-56
2023/10/29 04:44:48;;;;;;;4.50;3.75;;;;;;;2.10;69.16;98379.88;5114260;28;20403;-54
2023/10/29 04:47:13;;;;;;;4.03;3.63;;;;;;;2.06;69.59;98382.84;5114215;28;20031;-58
2023/10/29 04:49:39;;;;;;;4.70;4.10;;;;;;;2.02;69.95;98384.84;5114216;28;20024;-57
2023/10/29 04:52:05;;;;;;;4.07;3.65;;;;;;;2.05;69.56;98395.19;5113697;28;20019;-53
2023/10/29 04:54:30;;;;;;;5.05;3.85;;;;;;;1.98;69.93;98392.13;5114095;28;20573;-56
2023/10/29 04:56:56;;;;;;;4.90;4.13;;;;;;;1.89;70.10;98381.34;5113488;28;20046;-62
2023/10/29 04:59:21;;;;;;;4.50;3.70;;;;;;;1.90;69.63;98391.81;5113771;28;20043;-61
2023/10/29 05:01:47;;;;;;;3.80;3.50;;;;;;;1.93;69.86;98401.31;5114444;28;20039;-61
2023/10/29 05:04:12;;;;;;;5.20;4.07;;;;;;;1.89;70.07;98411.25;5113873;28;20430;-54
2023/10/29 05:06:38;;;;;;;4.20;3.80;;;;;;;1.69;70.02;98392.31;5113864;28;20031;-61
2023/10/29 05:09:04;;;;;;;4.30;3.90;;;;;;;1.77;70.24;98415.56;5113188;28;20024;-58
2023/10/29 05:11:31;;;;;;;4.97;4.28;;;;;;;1.78;70.36;98419.03;5114125;28;20028;-59
2023/10/29 05:13:56;;;;;;;5.60;4.60;;;;;;;1.83;70.30;98425.69;5113809;28;20027;-59
2023/10/29 05:16:22;;;;;;;6.38;5.15;;;;;;;1.85;69.96;98421.16;5112907;28;20085;-56
2023/10/29 05:18:47;;;;;;;5.82;4.35;;;;;;;1.92;70.39;98424.22;5113350;28;20461;-54
2023/10/29 05:21:13;;;;;;;5.35;4.50;;;;;;;1.67;69.99;98377.53;5113848;28;20450;-56
2023/10/29 05:23:38;;;;;;;4.75;4.28;;;;;;;1.98;69.60;98425.63;5113186;28;20446;-59
2023/10/29 05:26:04;;;;;;;7.30;4.53;;;;;;;2.00;69.64;98434.28;5113216;28;20415;-56
2023/10/29 05:28:30;;;;;;;5.28;4.45;;;;;;;2.00;70.19;98429.81;5113504;28;20035;-53
2023/10/29 05:30:56;;;;;;;6.38;4.82;;;;;;;2.01;70.33;98428.03;5114011;28;20039;-60
2023/10/29 05:33:21;;;;;;;6.53;5.10;;;;;;;2.12;69.95;98443.16;5113125;28;20695;-56
2023/10/29 05:35:47;;;;;;;5.53;4.55;;;;;;;2.15;69.61;98449.06;5113442;28;20476;-57
2023/10/29 05:38:13;;;;;;;7.45;5.07;;;;;;;2.16;69.41;98455.19;5112494;28;20039;-59
2023/10/29 05:40:38;;;;;;;6.55;4.78;;;;;;;2.21;68.86;98449.63;5113394;28;20028;-55
2023/10/29 05:43:04;;;;;;;5.28;4.55;;;;;;;2.15;68.70;98454.34;5112665;28;20072;-59
2023/10/29 05:45:30;;;;;;;8.52;4.85;;;;;;;2.11;69.72;98450.22;5113615;28;20438;-58
2023/10/29 05:47:56;;;;;;;7.55;5.28;;;;;;;2.08;69.40;98441.69;5113208;28;20095;-56
2023/10/29 05:50:23;;;;;;;7.20;5.38;;;;;;;2.14;69.14;98449.19;5113493;28;20029;-58
2023/10/29 05:52:49;;;;;;;6.30;5.00;;;;;;;2.29;69.50;98469.28;5112964;28;20038;-56
2023/10/29 05:55:15;;;;;;;6.75;5.30;;;;;;;2.29;68.94;98471.91;5110169;28;20046;-57
2023/10/29 05:57:40;;;;;;;6.28;5.22;;;;;;;2.14;69.30;98452.66;5093243;28;20028;-58
2023/10/29 06:00:07;;;;;;;6.22;4.95;;;;;;;2.34;69.37;98490.06;5112899;28;20028;-59
2023/10/29 06:02:33;;;;;;;6.15;5.07;;;;;;;2.41;69.72;98501.06;5112958;28;20096;-59
2023/10/29 06:04:58;;;;;;;8.52;5.65;;;;;;;2.43;69.17;98500.03;5113017;28;20019;-58
2023/10/29 06:07:24;;;;;;;6.25;5.25;;;;;;;2.43;69.14;98500.03;5111810;28;20102;-60
2023/10/29 06:09:49;;;;;;;7.80;5.63;;;;;;;2.50;68.73;98494.31;5112426;28;20447;-59
2023/10/29 06:12:15;;;;;;;6.07;5.35;;;;;;;2.51;68.87;98501.28;5110219;28;20096;-57
2023/10/29 06:14:45;;;;;;;6.75;5.55;;;;;;;2.51;68.88;98493.34;5112618;28;20047;-60
2023/10/29 06:17:11;;;;;;;9.25;5.95;;;;;;;2.31;68.95;98461.22;5112207;28;20371;-56
2023/10/29 06:19:36;;;;;;;7.90;5.80;;;;;;;2.52;68.66;98500.31;5112625;28;20024;-58
2023/10/29 06:22:02;;;;;;;8.05;5.97;;;;;;;2.53;68.28;98509.94;5112567;28;20418;-59
2023/10/29 06:24:27;;;;;;;7.13;5.53;;;;;;;2.49;68.83;98504.00;5112419;28;20127;-55
2023/10/29 06:26:53;;;;;;;7.32;5.65;;;;;;;2.47;68.77;98505.09;5112579;28;20416;-55
2023/10/29 06:29:18;;;;;;;7.15;5.75;;;;;;;2.55;68.72;98510.69;5112730;28;20106;-56
2023/10/29 06:31:44;;;;;;;7.93;6.07;;;;;;;2.52;68.59;98508.25;5113105;28;20107;-56
2023/10/29 06:34:10;;;;;;;7.97;5.90;;;;;;;2.52;68.74;98518.81;5113083;28;20118;-52
2023/10/29 06:36:35;;;;;;;6.05;5.25;;;;;;;2.47;68.22;98528.88;5114449;28;20456;-58
2023/10/29 06:39:01;;;;;;;6.80;5.70;;;;;;;2.51;68.86;98522.41;5117068;28;20036;-57
2023/10/29 06:41:26;;;;;;;8.68;5.70;;;;;;;2.59;68.09;98525.38;5117180;28;20399;-59
2023/10/29 06:43:52;;;;;;;6.88;5.50;;;;;;;2.65;68.05;98532.91;5117160;28;20023;-54
2023/10/29 06:46:17;;;;;;;6.90;5.63;;;;;;;2.66;68.34;98524.03;5116749;28;20038;-57
2023/10/29 06:48:43;;;;;;;6.60;5.40;;;;;;;2.74;67.74;98541.97;5117416;28;20039;-57
2023/10/29 06:51:14;;;;;;;6.75;5.35;;;;;;;2.74;67.58;98544.59;5116614;28;20432;-58
2023/10/29 06:53:40;;;;;;;9.20;6.10;;;;;;;2.67;67.63;98551.28;5117154;28;20046;-61
2023/10/29 06:56:06;;;;;;;7.28;5.88;;;;;;;2.69;68.03;98554.66;5116886;28;20031;-58
2023/10/29 06:58:32;;;;;;;6.93;5.97;;;;;;;2.60;68.39;98553.47;5116685;28;20035;-58
2023/10/29 07:01:08;;;;;;;8.05;6.03;;;;;;;2.59;67.85;98546.50;5116945;28;20126;-56
2023/10/29 07:03:35;;;;;;;8.98;6.07;;;;;;;2.59;68.64;98572.94;5116705;28;20099;-58
2023/10/29 07:06:08;;;;;;;7.80;6.20;;;;;;;2.67;68.26;98572.41;5116296;28;20035;-56
2023/10/29 07:08:34;;;;;;;8.60;5.65;;;;;;;2.54;68.31;98580.34;5116585;28;20067;-55
2023/10/29 07:11:01;;;;;;;8.05;6.10;;;;;;;2.55;67.94;98587.31;5115351;28;20392;-53
2023/10/29 07:13:27;;;;;;;8.05;5.95;;;;;;;2.37;67.67;98569.09;5116401;27;20043;-57
2023/10/29 07:15:53;;;;;;;9.27;6.45;;;;;;;2.34;68.62;98579.88;5116598;28;20323;-54
2023/10/29 07:18:19;;;;;;;9.60;6.85;;;;;;;2.25;68.46;98591.06;5116521;28;20027;-56
2023/10/29 07:20:45;;;;;;;9.40;6.70;;;;;;;2.27;68.87;98605.00;5116890;28;20372;-54
2023/10/29 07:23:12;;;;;;;8.90;6.32;;;;;;;2.31;69.12;98608.31;5116022;28;20027;-56
2023/10/29 07:25:38;;;;;;;9.15;6.70;;;;;;;2.33;68.94;98609.88;5116025;28;20123;-54
2023/10/29 07:28:03;;;;;;;9.23;6.88;;;;;;;2.33;68.71;98607.22;5114901;28;20123;-57
2023/10/29 07:30:30;;;;;;;8.25;6.57;;;;;;;2.36;69.74;98624.69;5116210;28;20024;-56
2023/10/29 07:32:56;;;;;;;11.07;7.65;;;;;;;2.34;69.17;98605.44;5115530;28;20043;-57
2023/10/29 07:35:21;;;;;;;9.63;7.45;;;;;;;2.39;68.73;98617.38;5115026;28;20448;-52
2023/10/29 07:37:47;;;;;;;11.43;7.40;;;;;;;2.47;68.77;98626.63;5116185;28;20028;-59
2023/10/29 07:40:12;;;;;;;9.10;6.65;;;;;;;2.47;68.66;98626.63;5103755;28;20378;-59
2023/10/29 07:42:38;;;;;;;9.45;6.57;;;;;;;2.52;68.56;98635.06;5107902;28;20100;-53
2023/10/29 07:45:04;;;;;;;9.18;6.35;;;;;;;2.48;68.48;98630.94;5113873;28;20024;-53
2023/10/29 07:47:32;;;;;;;10.07;7.35;;;;;;;2.57;68.14;98641.75;5114341;28;20077;-57
2023/10/29 07:49:57;;;;;;;9.75;6.93;;;;;;;2.44;67.79;98619.72;5114060;28;20040;-56
2023/10/29 07:52:23;;;;;;;9.32;6.55;;;;;;;2.52;67.97;98640.34;5115110;28;20440;-57
2023/10/29 07:54:48;;;;;;;9.50;6.78;;;;;;;2.58;67.93;98656.66;5114245;28;20420;-54
2023/10/29 07:57:14;;;;;;;9.50;6.70;;;;;;;2.64;68.21;98655.38;5113686;28;20031;-62
2023/10/29 07:59:39;;;;;;;10.68;7.70;;;;;;;2.41;68.49;98623.44;5113574;28;20031;-61
2023/10/29 08:02:05;;;;;;;11.48;7.57;;;;;;;2.67;67.95;98671.06;5114197;28;20514;-60
2023/10/29 08:04:31;;;;;;;11.82;7.72;;;;;;;2.63;68.14;98658.16;5113877;28;20020;-60
2023/10/29 08:06:57;;;;;;;12.30;8.05;;;;;;;2.67;68.01;98676.34;5114948;27;20039;-61
2023/10/29 08:09:22;;;;;;;9.80;7.45;;;;;;;2.62;67.62;98678.44;5113645;28;20362;-59
2023/10/29 08:11:48;;;;;;;11.80;7.80;;;;;;;2.66;68.03;98692.28;5115112;28;20032;-61
2023/10/29 08:14:14;;;;;;;10.45;7.20;;;;;;;2.46;67.59;98656.63;5114454;28;20023;-62
2023/10/29 08:16:41;;;;;;;9.90;6.47;;;;;;;2.65;67.58;98688.81;5113593;28;20023;-57
2023/10/29 08:19:07;;;;;;;10.73;7.28;;;;;;;2.61;67.65;98684.66;5113909;28;20109;-59
2023/10/29 08:21:33;;;;;;;10.27;7.15;;;;;;;2.71;67.71;98692.81;5114916;28;20081;-59
2023/10/29 08:23:59;;;;;;;11.48;7.22;;;;;;;2.73;67.25;98691.78;5115041;28;20399;-59
2023/10/29 08:26:26;;;;;;;10.55;7.43;;;;;;;2.78;67.29;98709.13;5115073;28;20031;-59
2023/10/29 08:28:52;;;;;;;10.70;7.07;;;;;;;2.74;67.11;98713.75;5115035;28;20448;-58
2023/10/29 08:31:18;;;;;;;9.85;7.45;;;;;;;2.64;67.45;98713.53;5114369;28;20031;-58
2023/10/29 08:33:44;;;;;;;9.65;7.00;;;;;;;2.60;67.64;98706.75;5114324;28;20032;-57
2023/10/29 08:36:10;;;;;;;9.82;7.03;;;;;;;2.65;67.50;98704.69;5113553;28;20104;-60
2023/10/29 08:38:36;;;;;;;9.95;7.03;;;;;;;2.60;67.92;98712.03;5114817;28;20081;-61
2023/10/29 08:41:12;;;;;;;9.73;6.88;;;;;;;2.72;67.91;98724.47;5114671;28;20177;-60
2023/10/29 08:43:37;;;;;;;10.57;6.97;;;;;;;2.71;67.89;98725.41;5094356;28;20039;-58
2023/10/29 08:46:04;;;;;;;10.75;6.93;;;;;;;2.70;67.54;98731.63;5094598;28;20028;-60
2023/10/29 08:48:30;;;;;;;9.25;6.85;;;;;;;2.71;67.67;98729.81;5094779;28;20028;-61
2023/10/29 08:50:55;;;;;;;11.15;6.97;;;;;;;2.73;67.70;98734.06;5094272;28;20028;-60
2023/10/29 08:53:21;;;;;;;10.65;7.07;;;;;;;2.66;66.94;98732.78;5094371;28;20032;-56
2023/10/29 08:55:46;;;;;;;11.50;6.65;;;;;;;2.75;67.46;98741.88;5096131;28;20023;-60
2023/10/29 08:58:12;;;;;;;10.52;7.43;;;;;;;2.78;66.96;98735.56;5114134;28;20608;-60
2023/10/29 09:00:38;;;;;;;7.68;6.18;;;;;;;2.79;66.71;98734.63;5113333;28;20110;-58
2023/10/29 09:03:03;;;;;;;10.10;7.00;;;;;;;2.85;66.96;98752.72;5114359;28;20024;-61
2023/10/29 09:05:29;;;;;;;9.35;6.57;;;;;;;2.86;66.74;98749.97;5114474;28;20092;-62
2023/10/29 09:07:54;;;;;;;9.60;6.72;;;;;;;2.90;66.60;98747.13;5114315;28;20030;-57
2023/10/29 09:10:20;;;;;;;9.55;6.50;;;;;;;2.86;65.97;98755.25;5113728;28;20457;-61
2023/10/29 09:12:45;;;;;;;8.25;6.30;;;;;;;2.78;66.63;98760.22;5114169;28;20491;-58
2023/10/29 09:15:12;;;;;;;10.35;6.63;;;;;;;2.80;66.48;98765.38;5113928;28;20038;-61
2023/10/29 09:17:37;;;;;;;8.10;6.20;;;;;;;2.84;67.74;98762.44;5114055;28;20122;-59
2023/10/29 09:20:03;;;;;;;11.02;6.90;;;;;;;2.92;67.38;98761.94;5114020;28;20127;-56
2023/10/29 09:22:30;;;;;;;9.07;6.80;;;;;;;2.95;66.06;98756.47;5113882;28;20027;-56
2023/10/29 09:24:55;;;;;;;12.95;7.90;;;;;;;3.00;66.64;98762.28;5114258;28;20051;-56
2023/10/29 09:27:21;;;;;;;8.88;6.43;;;;;;;2.98;66.20;98779.19;5114233;28;20035;-58
2023/10/29 09:29:48;;;;;;;9.82;6.53;;;;;;;2.98;65.87;98780.03;5113749;28;20111;-59
2023/10/29 09:32:13;;;;;;;10.00;6.72;;;;;;;2.97;65.89;98773.06;5113504;28;20035;-58
2023/10/29 09:34:42;;;;;;;9.05;6.43;;;;;;;2.92;66.26;98775.16;5114039;28;20106;-60
2023/10/29 09:37:08;;;;;;;7.93;5.88;;;;;;;3.01;65.97;98794.84;5113399;28;20054;-61
2023/10/29 09:39:33;;;;;;;8.77;6.55;;;;;;;3.05;65.61;98790.22;5113595;28;20422;-59
2023/10/29 09:42:08;;;;;;;9.07;6.72;;;;;;;3.15;66.22;98794.78;5113669;28;20035;-55
2023/10/29 09:44:34;;;;;;;10.85;7.00;;;;;;;3.20;65.63;98790.97;5113670;28;20023;-57
2023/10/29 09:47:08;;;;;;;9.23;6.90;;;;;;;3.34;65.58;98800.63;5113481;27;20038;-58
2023/10/29 09:49:36;;;;;;;8.38;6.72;;;;;;;3.42;64.82;98806.28;5112031;28;20024;-59
2023/10/29 09:52:01;;;;;;;8.95;6.47;;;;;;;3.35;64.61;98804.97;5113737;28;20036;-56
2023/10/29 09:54:27;;;;;;;8.75;6.70;;;;;;;3.32;64.80;98813.13;5113694;28;20023;-54
2023/10/29 09:56:52;;;;;;;7.80;6.10;;;;;;;3.28;64.48;98807.22;5113538;28;20035;-60
2023/10/29 09:59:18;;;;;;;8.93;6.95;;;;;;;3.29;63.94;98816.84;5112642;28;20117;-60
2023/10/29 10:01:43;;;;;;;9.50;6.60;;;;;;;3.16;64.59;98824.75;5112448;28;20458;-57
2023/10/29 10:04:09;;;;;;;8.57;6.32;;;;;;;3.17;64.52;98821.16;5113050;28;20063;-62
2023/10/29 10:06:36;;;;;;;9.27;6.43;;;;;;;3.18;64.67;98838.72;5113314;28;20036;-60
2023/10/29 10:09:02;;;;;;;8.93;6.30;;;;;;;3.20;65.43;98831.53;5112044;28;20409;-61
2023/10/29 10:11:27;;;;;;;8.65;6.57;;;;;;;3.15;64.93;98829.16;5112950;28;20107;-55
2023/10/29 10:13:53;;;;;;;8.32;6.57;;;;;;;3.23;64.64;98841.03;5112947;28;20031;-60
2023/10/29 10:16:20;;;;;;;6.95;5.85;;;;;;;3.14;64.34;98837.22;5112525;28;20027;-57
2023/10/29 10:18:59;;;;;;;7.25;5.88;;;;;;;3.20;64.79;98847.41;5111805;28;20039;-51
2023/10/29 10:21:42;;;;;;;9.10;6.15;;;;;;;3.15;64.96;98845.03;5113372;28;20035;-55
2023/10/29 10:24:08;;;;;;;8.45;6.47;;;;;;;3.16;64.07;98856.47;5111141;28;20034;-52
2023/10/29 10:26:35;;;;;;;7.40;5.93;;;;;;;3.08;64.40;98853.47;5112941;28;20038;-54
2023/10/29 10:29:03;;;;;;;7.32;5.57;;;;;;;3.08;64.55;98850.81;5112808;28;20039;-53
2023/10/29 10:31:30;;;;;;;7.68;5.80;;;;;;;3.06;64.76;98848.31;5113373;28;20335;-54
2023/10/29 10:34:15;;;;;;;6.85;5.75;;;;;;;3.22;64.70;98860.50;5113301;28;20032;-58
2023/10/29 10:36:42;;;;;;;8.02;5.72;;;;;;;3.20;64.84;98852.69;5112836;28;20059;-59
2023/10/29 10:39:08;;;;;;;7.55;5.72;;;;;;;3.23;64.53;98863.06;5112606;28;20038;-56
2023/10/29 10:41:45;;;;;;;7.78;5.93;;;;;;;3.35;64.57;98877.28;5112798;28;20024;-60
2023/10/29 10:44:15;;;;;;;7.32;5.78;;;;;;;3.33;63.99;98878.31;5112186;28;20066;-58
2023/10/29 10:46:47;;;;;;;7.57;5.45;;;;;;;3.30;64.71;98877.56;5112953;28;20034;-61
2023/10/29 10:49:14;;;;;;;6.70;5.57;;;;;;;3.25;64.73;98884.09;5112837;28;20036;-59
2023/10/29 10:51:40;;;;;;;6.80;5.45;;;;;;;3.20;63.77;98894.16;5113087;28;20069;-61
2023/10/29 10:54:07;;;;;;;8.05;5.32;;;;;;;3.16;64.93;98888.22;5112464;28;20310;-59
2023/10/29 10:56:37;;;;;;;7.15;5.32;;;;;;;3.23;64.15;98900.09;5111800;28;20020;-56
2023/10/29 10:59:07;;;;;;;6.32;5.35;;;;;;;3.15;64.22;98894.47;5107661;28;20452;-56
2023/10/29 11:01:38;;;;;;;8.63;5.55;;;;;;;3.11;64.31;98896.44;5110810;28;20028;-52
2023/10/29 11:04:05;;;;;;;6.80;5.50;;;;;;;3.14;65.48;98908.63;5109950;28;20137;-54
2023/10/29 11:06:31;;;;;;;7.80;5.50;;;;;;;3.16;64.32;98912.88;5111989;28;20046;-57
2023/10/29 11:08:59;;;;;;;7.30;5.40;;;;;;;3.19;64.66;98911.84;5112493;28;20110;-52
2023/10/29 11:11:53;;;;;;;7.88;5.50;;;;;;;3.33;65.25;98912.72;5111088;28;20391;-53
2023/10/29 11:14:19;;;;;;;8.93;5.00;;;;;;;3.27;64.61;98922.75;5092724;28;20040;-60
2023/10/29 11:16:50;;;;;;;7.05;5.32;;;;;;;3.34;65.20;98931.16;5112279;28;20438;-55
2023/10/29 11:19:44;;;;;;;6.65;5.38;;;;;;;3.47;64.64;98928.53;5111743;28;20361;-57
2023/10/29 11:22:19;;;;;;;6.78;4.93;;;;;;;3.38;64.28;98929.16;5111856;28;20043;-58
2023/10/29 11:25:04;;;;;;;6.60;4.87;;;;;;;3.37;64.37;98945.94;5116179;28;20050;-56
2023/10/29 11:27:40;;;;;;;7.80;4.75;;;;;;;3.27;64.60;98941.28;5116354;28;20059;-57
2023/10/29 11:30:17;;;;;;;6.05;4.70;;;;;;;3.34;64.50;98959.38;5115879;28;20031;-56
2023/10/29 11:32:44;;;;;;;6.18;5.28;;;;;;;3.24;64.51;98954.69;5115428;28;20035;-57
2023/10/29 11:35:21;;;;;;;6.10;4.60;;;;;;;3.22;64.30;98967.19;5114202;28;20040;-59
2023/10/29 11:37:49;;;;;;;5.70;4.57;;;;;;;3.13;65.20;98965.09;5114547;28;20036;-56